Time,TemperatureF,DewpointF,PressureIn,WindDirection,WindDirectionDegrees,WindSpeedMPH,WindSpeedGustMPH,Humidity,HourlyPrecipIn,Conditions,Clouds,dailyrainin,SoftwareType,DateUTC
2015-05-29 00:04:00,47.3,39.7,29.56,SW,229,0.0,0.0,75,0.00,,,0.00,meteobridge,2015-05-29 08:04:00,
2015-05-29 00:10:00,47.1,40.3,29.56,SW,229,0.0,0.0,77,0.00,,,0.00,meteobridge,2015-05-29 08:10:00,
2015-05-29 00:15:00,46.9,40.1,29.56,SW,229,0.0,0.0,77,0.00,,,0.00,meteobridge,2015-05-29 08:15:00,
2015-05-29 00:21:00,46.6,40.5,29.56,SW,229,0.0,0.0,79,0.00,,,0.00,meteobridge,2015-05-29 08:21:00,
2015-05-29 00:26:00,46.4,40.3,29.56,SW,229,0.0,0.0,79,0.00,,,0.00,meteobridge,2015-05-29 08:26:00,
2015-05-29 00:31:00,46.2,40.6,29.56,SW,229,0.0,0.0,81,0.00,,,0.00,meteobridge,2015-05-29 08:31:00,
2015-05-29 00:37:00,45.9,40.3,29.56,SW,229,0.0,0.0,81,0.00,,,0.00,meteobridge,2015-05-29 08:37:00,
2015-05-29 00:42:00,45.5,40.3,29.56,SW,229,0.0,0.0,82,0.00,,,0.00,meteobridge,2015-05-29 08:42:00,
2015-05-29 00:48:00,45.3,40.5,29.56,SW,229,0.0,0.0,83,0.00,,,0.00,meteobridge,2015-05-29 08:48:00,
2015-05-29 00:54:00,45.1,40.6,29.56,SW,229,0.0,0.0,84,0.00,,,0.00,meteobridge,2015-05-29 08:54:00,
2015-05-29 00:59:00,45.0,40.5,29.56,SW,229,0.0,0.0,84,0.00,,,0.00,meteobridge,2015-05-29 08:59:00,
2015-05-29 01:04:00,44.8,40.3,29.56,SW,229,0.0,0.0,84,0.00,,,0.00,meteobridge,2015-05-29 09:04:00,
2015-05-29 01:10:00,44.6,40.1,29.56,SW,229,0.0,0.0,84,0.00,,,0.00,meteobridge,2015-05-29 09:10:00,
2015-05-29 01:15:00,44.2,40.1,29.56,SW,229,0.0,0.0,85,0.00,,,0.00,meteobridge,2015-05-29 09:15:00,
2015-05-29 01:21:00,44.1,39.9,29.56,SW,229,0.0,0.0,85,0.00,,,0.00,meteobridge,2015-05-29 09:21:00,
2015-05-29 01:26:00,43.7,39.6,29.56,SW,229,0.0,0.0,85,0.00,,,0.00,meteobridge,2015-05-29 09:26:00,
2015-05-29 01:32:00,43.5,39.4,29.56,SW,229,0.0,0.0,85,0.00,,,0.00,meteobridge,2015-05-29 09:32:00,
2015-05-29 01:37:00,43.0,39.0,29.56,SW,229,0.0,0.0,86,0.00,,,0.00,meteobridge,2015-05-29 09:37:00,
2015-05-29 01:42:00,43.0,39.0,29.56,SW,229,0.0,0.0,86,0.00,,,0.00,meteobridge,2015-05-29 09:42:00,
2015-05-29 01:48:00,42.6,39.0,29.56,SW,229,0.0,0.0,87,0.00,,,0.00,meteobridge,2015-05-29 09:48:00,
2015-05-29 01:53:00,42.4,38.8,29.56,SW,229,0.0,0.0,87,0.00,,,0.00,meteobridge,2015-05-29 09:53:00,
2015-05-29 01:59:00,42.4,38.8,29.56,SW,229,0.0,0.0,87,0.00,,,0.00,meteobridge,2015-05-29 09:59:00,
2015-05-29 02:05:00,42.4,39.2,29.56,SW,229,0.0,0.0,88,0.00,,,0.00,meteobridge,2015-05-29 10:05:00,
2015-05-29 02:10:00,42.4,39.2,29.56,SW,229,0.0,0.0,88,0.00,,,0.00,meteobridge,2015-05-29 10:10:00,
2015-05-29 02:16:00,42.1,38.8,29.56,SW,229,0.0,0.0,88,0.00,,,0.00,meteobridge,2015-05-29 10:16:00,
2015-05-29 02:21:00,42.1,38.8,29.56,SW,229,0.0,0.0,88,0.00,,,0.00,meteobridge,2015-05-29 10:21:00,
2015-05-29 02:26:00,41.9,38.8,29.56,SW,229,0.0,2.2,89,0.00,,,0.00,meteobridge,2015-05-29 10:26:00,
2015-05-29 02:32:00,41.5,38.5,29.56,SW,229,0.0,0.0,89,0.00,,,0.00,meteobridge,2015-05-29 10:32:00,
2015-05-29 02:43:00,41.4,38.7,29.56,SW,229,0.0,0.0,90,0.00,,,0.00,meteobridge,2015-05-29 10:43:00,
2015-05-29 02:48:00,41.2,38.5,29.56,SW,229,0.0,0.0,90,0.00,,,0.00,meteobridge,2015-05-29 10:48:00,
2015-05-29 02:54:00,40.8,38.1,29.56,SW,229,0.0,0.0,90,0.00,,,0.00,meteobridge,2015-05-29 10:54:00,
2015-05-29 02:59:00,40.6,38.3,29.56,SW,229,0.0,0.0,91,0.00,,,0.00,meteobridge,2015-05-29 10:59:00,
2015-05-29 03:05:00,40.6,38.3,29.56,SW,229,0.0,0.0,91,0.00,,,0.00,meteobridge,2015-05-29 11:05:00,
2015-05-29 03:11:00,40.5,38.1,29.56,SW,229,0.0,0.0,91,0.00,,,0.00,meteobridge,2015-05-29 11:11:00,
2015-05-29 03:16:00,40.3,37.9,29.56,SW,229,0.0,0.0,91,0.00,,,0.00,meteobridge,2015-05-29 11:16:00,
2015-05-29 03:21:00,40.1,37.8,29.56,SW,229,0.0,0.0,91,0.00,,,0.00,meteobridge,2015-05-29 11:21:00,
2015-05-29 03:27:00,39.9,37.6,29.56,SW,229,0.0,0.0,91,0.00,,,0.00,meteobridge,2015-05-29 11:27:00,
2015-05-29 03:32:00,39.9,37.8,29.56,SW,229,2.2,2.7,92,0.00,,,0.00,meteobridge,2015-05-29 11:32:00,
2015-05-29 03:38:00,40.1,38.3,29.56,SW,229,0.0,2.7,93,0.00,,,0.00,meteobridge,2015-05-29 11:38:00,
2015-05-29 03:43:00,40.1,38.5,29.56,SW,229,0.0,0.0,94,0.00,,,0.00,meteobridge,2015-05-29 11:43:00,
2015-05-29 03:49:00,39.9,38.3,29.56,SW,229,0.0,0.0,94,0.00,,,0.00,meteobridge,2015-05-29 11:49:00,
2015-05-29 03:55:00,39.7,37.9,29.56,SW,229,0.0,0.0,93,0.00,,,0.00,meteobridge,2015-05-29 11:55:00,
2015-05-29 04:00:00,39.6,37.8,29.56,SW,229,0.0,0.0,93,0.00,,,0.00,meteobridge,2015-05-29 12:00:00,
2015-05-29 04:05:00,39.2,37.4,29.56,SW,229,0.0,0.0,93,0.00,,,0.00,meteobridge,2015-05-29 12:05:00,
2015-05-29 04:11:00,39.0,37.4,29.56,SW,229,0.0,0.0,94,0.00,,,0.00,meteobridge,2015-05-29 12:11:00,
2015-05-29 04:16:00,38.7,37.0,29.56,SW,229,0.0,0.0,94,0.00,,,0.00,meteobridge,2015-05-29 12:16:00,
2015-05-29 04:22:00,38.5,36.9,29.56,SW,229,0.0,0.0,94,0.00,,,0.00,meteobridge,2015-05-29 12:22:00,
2015-05-29 04:27:00,38.3,36.7,29.56,SW,229,0.0,0.0,94,0.00,,,0.00,meteobridge,2015-05-29 12:27:00,
2015-05-29 04:33:00,38.1,36.5,29.56,SW,229,0.0,0.0,94,0.00,,,0.00,meteobridge,2015-05-29 12:33:00,
2015-05-29 04:39:00,38.1,36.5,29.56,SW,229,0.0,0.0,94,0.00,,,0.00,meteobridge,2015-05-29 12:39:00,
2015-05-29 04:44:00,37.9,36.3,29.56,SW,229,0.0,0.0,94,0.00,,,0.00,meteobridge,2015-05-29 12:44:00,
2015-05-29 04:49:00,37.9,36.3,29.56,SW,229,0.0,0.0,94,0.00,,,0.00,meteobridge,2015-05-29 12:49:00,
2015-05-29 04:55:00,37.8,36.1,29.56,SW,229,0.0,0.0,94,0.00,,,0.00,meteobridge,2015-05-29 12:55:00,
2015-05-29 05:00:00,37.6,36.0,29.56,SW,229,0.0,0.0,94,0.00,,,0.00,meteobridge,2015-05-29 13:00:00,
2015-05-29 05:06:00,37.6,36.0,29.56,SW,229,0.0,0.0,94,0.00,,,0.00,meteobridge,2015-05-29 13:06:00,
2015-05-29 05:11:00,37.4,36.1,29.56,SW,229,0.0,0.0,95,0.00,,,0.00,meteobridge,2015-05-29 13:11:00,
2015-05-29 05:17:00,37.4,36.1,29.56,SW,229,0.0,0.0,95,0.00,,,0.00,meteobridge,2015-05-29 13:17:00,
2015-05-29 05:22:00,37.4,36.1,29.56,SW,229,0.0,0.0,95,0.00,,,0.00,meteobridge,2015-05-29 13:22:00,
2015-05-29 05:28:00,37.2,36.0,29.56,SW,229,0.0,0.0,95,0.00,,,0.00,meteobridge,2015-05-29 13:28:00,
2015-05-29 05:33:00,37.2,36.0,29.56,SW,229,0.0,0.0,95,0.00,,,0.00,meteobridge,2015-05-29 13:33:00,
2015-05-29 05:39:00,37.2,36.0,29.56,SW,229,0.0,0.0,95,0.00,,,0.00,meteobridge,2015-05-29 13:39:00,
2015-05-29 05:44:00,37.4,36.1,29.56,SW,229,0.0,0.0,95,0.00,,,0.00,meteobridge,2015-05-29 13:44:00,
2015-05-29 05:50:00,37.4,36.1,29.56,SW,229,0.0,0.0,95,0.00,,,0.00,meteobridge,2015-05-29 13:50:00,
2015-05-29 05:55:00,37.6,36.5,29.56,SW,229,0.0,0.0,96,0.00,,,0.00,meteobridge,2015-05-29 13:55:00,
2015-05-29 06:01:00,37.6,36.5,29.56,SW,229,0.0,2.7,96,0.00,,,0.00,meteobridge,2015-05-29 14:01:00,
2015-05-29 06:06:00,37.8,36.7,29.56,SW,229,0.0,3.1,96,0.00,,,0.00,meteobridge,2015-05-29 14:06:00,
2015-05-29 06:12:00,38.1,37.4,29.56,SW,229,2.7,3.1,97,0.00,,,0.00,meteobridge,2015-05-29 14:12:00,
2015-05-29 06:17:00,38.7,37.9,29.56,SW,229,0.0,3.6,97,0.00,,,0.00,meteobridge,2015-05-29 14:17:00,
2015-05-29 06:23:00,39.4,38.8,29.56,SW,229,0.0,3.6,98,0.00,,,0.00,meteobridge,2015-05-29 14:23:00,
2015-05-29 06:28:00,40.1,39.6,29.56,SW,229,2.7,4.9,98,0.00,,,0.00,meteobridge,2015-05-29 14:28:00,
2015-05-29 06:34:00,41.5,41.0,29.56,SW,228,3.1,3.1,98,0.00,,,0.00,meteobridge,2015-05-29 14:34:00,
2015-05-29 06:39:00,43.3,42.8,29.53,SW,228,2.7,3.1,98,0.00,,,0.00,meteobridge,2015-05-29 14:39:00,
2015-05-29 06:45:00,45.0,44.2,29.53,SW,228,0.0,0.0,97,0.00,,,0.00,meteobridge,2015-05-29 14:45:00,
2015-05-29 06:50:00,46.0,43.5,29.53,SW,228,0.0,3.1,91,0.00,,,0.00,meteobridge,2015-05-29 14:50:00,
2015-05-29 06:56:00,46.6,42.1,29.53,SW,228,0.0,0.0,84,0.00,,,0.00,meteobridge,2015-05-29 14:56:00,
2015-05-29 07:02:00,47.1,41.9,29.53,SW,229,0.0,0.0,82,0.00,,,0.00,meteobridge,2015-05-29 15:02:00,
2015-05-29 07:07:00,47.3,40.5,29.53,SW,228,0.0,0.0,77,0.00,,,0.00,meteobridge,2015-05-29 15:07:00,
2015-05-29 07:13:00,47.1,39.2,29.53,SW,229,2.7,3.1,74,0.00,,,0.00,meteobridge,2015-05-29 15:13:00,
2015-05-29 07:18:00,47.7,39.7,29.53,SW,228,0.0,0.0,74,0.00,,,0.00,meteobridge,2015-05-29 15:18:00,
2015-05-29 07:24:00,49.5,40.5,29.53,SW,229,0.0,0.0,71,0.00,,,0.00,meteobridge,2015-05-29 15:24:00,
2015-05-29 07:29:00,51.1,40.1,29.53,SW,229,0.0,2.7,66,0.00,,,0.00,meteobridge,2015-05-29 15:29:00,
2015-05-29 07:35:00,52.5,40.3,29.53,SW,228,0.0,0.0,63,0.00,,,0.00,meteobridge,2015-05-29 15:35:00,
2015-05-29 07:40:00,52.3,39.7,29.53,SW,229,0.0,3.6,62,0.00,,,0.00,meteobridge,2015-05-29 15:40:00,
2015-05-29 07:46:00,52.2,39.6,29.53,SW,228,2.2,2.2,62,0.00,,,0.00,meteobridge,2015-05-29 15:46:00,
2015-05-29 07:51:00,53.2,40.6,29.53,SW,229,0.0,0.0,62,0.00,,,0.00,meteobridge,2015-05-29 15:51:00,
2015-05-29 07:57:00,54.5,40.1,29.53,SW,228,3.1,3.6,58,0.00,,,0.00,meteobridge,2015-05-29 15:57:00,
2015-05-29 08:02:00,55.2,39.7,29.53,SW,228,0.0,0.0,56,0.00,,,0.00,meteobridge,2015-05-29 16:02:00,
2015-05-29 08:08:00,54.5,39.6,29.53,SW,228,0.0,0.0,57,0.00,,,0.00,meteobridge,2015-05-29 16:08:00,
2015-05-29 08:13:00,54.5,40.1,29.53,SW,228,3.1,3.1,58,0.00,,,0.00,meteobridge,2015-05-29 16:13:00,
2015-05-29 08:19:00,54.1,39.7,29.53,SW,228,0.0,2.7,58,0.00,,,0.00,meteobridge,2015-05-29 16:19:00,
2015-05-29 08:24:00,54.5,40.5,29.53,SW,228,0.0,0.0,59,0.00,,,0.00,meteobridge,2015-05-29 16:24:00,
2015-05-29 08:29:00,54.5,40.1,29.53,SW,228,2.2,2.2,58,0.00,,,0.00,meteobridge,2015-05-29 16:29:00,
2015-05-29 08:35:00,54.5,40.1,29.53,SW,228,0.0,0.0,58,0.00,,,0.00,meteobridge,2015-05-29 16:35:00,
2015-05-29 08:41:00,54.7,39.4,29.53,SW,228,2.2,2.7,56,0.00,,,0.00,meteobridge,2015-05-29 16:41:00,
2015-05-29 08:46:00,54.7,40.3,29.53,SW,228,0.0,3.6,58,0.00,,,0.00,meteobridge,2015-05-29 16:46:00,
2015-05-29 08:51:00,54.9,39.9,29.53,SW,228,4.0,4.0,57,0.00,,,0.00,meteobridge,2015-05-29 16:51:00,
2015-05-29 08:57:00,55.0,39.6,29.53,SW,228,0.0,0.0,56,0.00,,,0.00,meteobridge,2015-05-29 16:57:00,
2015-05-29 09:03:00,55.4,40.5,29.53,SW,229,0.0,5.4,57,0.00,,,0.00,meteobridge,2015-05-29 17:03:00,
2015-05-29 09:08:00,55.0,39.6,29.53,SW,228,3.6,4.0,56,0.00,,,0.00,meteobridge,2015-05-29 17:08:00,
2015-05-29 09:14:00,55.2,39.4,29.53,SW,228,0.0,0.0,55,0.00,,,0.00,meteobridge,2015-05-29 17:14:00,
2015-05-29 09:19:00,55.2,39.4,29.53,SW,228,0.0,0.0,55,0.00,,,0.00,meteobridge,2015-05-29 17:19:00,
2015-05-29 09:25:00,55.6,39.2,29.53,SW,228,3.6,4.9,54,0.00,,,0.00,meteobridge,2015-05-29 17:25:00,
2015-05-29 09:30:00,56.1,40.1,29.53,SW,229,3.1,4.0,55,0.00,,,0.00,meteobridge,2015-05-29 17:30:00,
2015-05-29 09:36:00,56.5,39.6,29.53,SW,229,0.0,4.0,53,0.00,,,0.00,meteobridge,2015-05-29 17:36:00,
2015-05-29 09:41:00,56.8,39.4,29.53,SW,229,3.1,5.4,52,0.00,,,0.00,meteobridge,2015-05-29 17:41:00,
2015-05-29 09:47:00,57.0,39.6,29.53,SW,228,3.6,4.5,52,0.00,,,0.00,meteobridge,2015-05-29 17:47:00,
2015-05-29 09:52:00,57.2,39.2,29.53,SSW,207,3.1,6.3,51,0.00,,,0.00,meteobridge,2015-05-29 17:52:00,
2015-05-29 09:58:00,57.9,39.4,29.50,SSW,206,2.2,3.6,50,0.00,,,0.00,meteobridge,2015-05-29 17:58:00,
2015-05-29 10:03:00,58.6,39.6,29.50,SSW,207,3.1,3.1,49,0.00,,,0.00,meteobridge,2015-05-29 18:03:00,
2015-05-29 10:08:00,59.0,39.9,29.50,SW,226,4.0,5.8,49,0.00,,,0.00,meteobridge,2015-05-29 18:08:00,
2015-05-29 10:14:00,59.4,39.2,29.50,South,179,0.0,2.7,47,0.00,,,0.00,meteobridge,2015-05-29 18:14:00,
2015-05-29 10:20:00,59.7,39.4,29.50,SSW,208,2.2,4.0,47,0.00,,,0.00,meteobridge,2015-05-29 18:20:00,
2015-05-29 10:25:00,60.4,40.6,29.50,SW,223,7.6,7.6,48,0.00,,,0.00,meteobridge,2015-05-29 18:25:00,
2015-05-29 10:31:00,61.0,39.6,29.50,SSE,155,2.2,5.8,45,0.00,,,0.00,meteobridge,2015-05-29 18:31:00,
2015-05-29 10:36:00,61.0,40.1,29.50,SW,216,5.8,5.8,46,0.00,,,0.00,meteobridge,2015-05-29 18:36:00,
2015-05-29 10:41:00,61.2,40.3,29.50,SW,224,2.7,5.8,46,0.00,,,0.00,meteobridge,2015-05-29 18:41:00,
2015-05-29 10:47:00,61.9,40.3,29.50,SSE,152,2.7,6.3,45,0.00,,,0.00,meteobridge,2015-05-29 18:47:00,
2015-05-29 10:52:00,62.4,40.3,29.50,South,184,0.0,3.6,44,0.00,,,0.00,meteobridge,2015-05-29 18:52:00,
2015-05-29 10:58:00,63.1,40.8,29.50,South,189,4.0,5.8,44,0.00,,,0.00,meteobridge,2015-05-29 18:58:00,
2015-05-29 11:03:00,63.3,41.5,29.50,SW,233,0.0,5.4,45,0.00,,,0.00,meteobridge,2015-05-29 19:03:00,
2015-05-29 11:09:00,63.9,41.0,29.50,SW,217,2.7,5.4,43,0.00,,,0.00,meteobridge,2015-05-29 19:09:00,
2015-05-29 11:14:00,64.2,41.9,29.50,SSE,151,6.3,8.1,44,0.00,,,0.00,meteobridge,2015-05-29 19:14:00,
2015-05-29 11:20:00,64.2,40.6,29.50,SE,141,4.9,5.8,42,0.00,,,0.00,meteobridge,2015-05-29 19:20:00,
2015-05-29 11:25:00,64.9,41.4,29.50,SW,215,3.6,7.6,42,0.00,,,0.00,meteobridge,2015-05-29 19:25:00,
2015-05-29 11:31:00,65.5,41.2,29.50,SW,222,5.4,8.1,41,0.00,,,0.00,meteobridge,2015-05-29 19:31:00,
2015-05-29 11:36:00,65.5,41.2,29.50,SW,230,3.6,8.3,41,0.00,,,0.00,meteobridge,2015-05-29 19:36:00,
2015-05-29 11:42:00,65.7,41.4,29.47,SW,233,5.4,8.3,41,0.00,,,0.00,meteobridge,2015-05-29 19:42:00,
2015-05-29 11:47:00,66.6,40.1,29.47,South,169,2.7,5.4,38,0.00,,,0.00,meteobridge,2015-05-29 19:47:00,
2015-05-29 11:52:00,66.2,39.9,29.47,South,186,5.8,8.7,38,0.00,,,0.00,meteobridge,2015-05-29 19:52:00,